Report METAR

 

KSJC - San Jose, California, USA
Distance from station: NE 14km
Dati ricevuti: 20/05/2019 18:53
Molto nuvoloso
Molto nuvoloso
 Vento da ONO
Vento: ONO 22 km/h, Raffica: 35 km/h
Temperatura: 16°C
P.to Rugiada: 8°C
Umidità: 59%
Barometro: 1015.2 hPa
Nuvole: Molto nuvoloso
Visibility: 16 km
Cloud details: Few Clouds 914 m
Molto nuvoloso 1524 m
Molto nuvoloso 3658 m
2019/05/21 01:53 KSJC 210153Z 29012G19KT 10SM FEW030 BKN050 BKN120 16/08 A2998 RMK AO2 SLP153 T01610083 $
KNUQ - Moffett Nas/Mtn, California, USA
Distance from station: N 14km
Dati ricevuti: 20/05/2019 18:56
Sereno
Sereno
 Vento da O
Vento: O 15 km/h
Temperatura: 15°C
P.to Rugiada: 8°C
Umidità: 63%
Barometro: 1015.6 hPa
Nuvole: Sereno
Visibility: 16 km
2019/05/21 01:56 KNUQ 210156Z 27008KT 10SM CLR 15/08 A2999 RMK AO2 SLP159 T01500083 $
 
KPAO - Palo Alto, California, USA
Distance from station: NNO 23km
Dati ricevuti: 20/05/2019 18:47
Molto nuvoloso
Molto nuvoloso
 Vento da O
Vento: O 22 km/h
Temperatura: 15°C
P.to Rugiada: 8°C
Umidità: 63%
Barometro: 1015.9 hPa
Nuvole: Molto nuvoloso
Visibility: 16 km
Cloud details: Parz. nuvoloso 1219 m
Molto nuvoloso 3658 m
2019/05/21 01:47 KPAO 210147Z 28012KT 10SM SCT040 BKN120 15/08 A3000
KRHV - San Jose/Reid, California, USA
Distance from station: ENE 19km
Dati ricevuti: 20/05/2019 18:50
Parz. nuvoloso
Parz. nuvoloso
 Vento da NNO
Vento: NNO 24 km/h, Raffica: 31 km/h
Temperatura: 16°C
P.to Rugiada: 8°C
Umidità: 59%
Barometro: 1015.6 hPa
Nuvole: Parz. nuvoloso
Visibility: 16 km
Cloud details: Parz. nuvoloso 1524 m
2019/05/21 01:50 KRHV 210150Z 33013G17KT 10SM SCT050 16/08 A2999
 
KOAK - Oakland, California, USA
Distance from station: NNO 50km
Dati ricevuti: 20/05/2019 18:53
Parz. nuvoloso
Parz. nuvoloso
 Vento da O
Vento: O 20 km/h
Temperatura: 16°C
P.to Rugiada: 9°C
Umidità: 63%
Barometro: 1015.9 hPa
Nuvole: Parz. nuvoloso
Visibility: 16 km
Cloud details: Parz. nuvoloso 853 m
Parz. nuvoloso 5486 m
2019/05/21 01:53 KOAK 210153Z 26011KT 10SM SCT028 SCT180 16/09 A3000 RMK AO2 SLP160 T01560089
KSQL - San Carlos Airpo, California, USA
Distance from station: NO 34km
Dati ricevuti: 20/05/2019 18:58
Molto nuvoloso
Molto nuvoloso
 Vento da OSO
Vento: OSO 20 km/h
Temperatura: 14°C
P.to Rugiada: 9°C
Umidità: 72%
Barometro: 1016.3 hPa
Nuvole: Molto nuvoloso
Visibility: 16 km
Cloud details: Parz. nuvoloso 732 m
Molto nuvoloso 792 m
Molto nuvoloso 2896 m
2019/05/21 01:58 KSQL 210158Z 24011KT 10SM SCT024 BKN026 BKN095 14/09 A3001
 
KSFO - San Francisco, California, USA
Distance from station: NO 49km
Dati ricevuti: 20/05/2019 18:56
Molto nuvoloso
Molto nuvoloso
 Vento da SO
Vento: SO 19 km/h
Temperatura: 14°C
P.to Rugiada: 8°C
Umidità: 67%
Barometro: 1015.9 hPa
Nuvole: Molto nuvoloso
Visibility: 16 km
Cloud details: Few Clouds 732 m
Molto nuvoloso 884 m
Molto nuvoloso 1280 m
2019/05/21 01:56 KSFO 210156Z 23010KT 10SM FEW024 BKN029 BKN042 14/08 A3000 RMK AO2 SLP157 T01440083 PNO $
KE16 - San Martin, California, USA
Distance from station: ESE 43km
Dati ricevuti: 19/05/2019 10:45
DATI Obsoleti
Parz. nuvoloso
Parz. nuvoloso
 Vento da SE
Vento: SE 17 km/h
Temperatura: 12°C
P.to Rugiada: 10°C
Umidità: 88%
Barometro: 1010.2 hPa
Nuvole: Parz. nuvoloso
Visibility: 16 km
Cloud details: Few Clouds 1463 m
Parz. nuvoloso 1676 m
2019/05/19 17:45 KE16 191745Z AUTO 13009KT 10SM FEW048 SCT055 12/10 A2983 RMK AO2
 
KWVI - Watsonville, California, USA
Distance from station: SSE 44km
Dati ricevuti: 20/05/2019 18:53
Coperto
Coperto
 Vento da O
Vento: O 20 km/h, Raffica: 33 km/h
Temperatura: 13°C
P.to Rugiada: 10°C
Umidità: 82%
Barometro: 1015.9 hPa
Nuvole: Coperto
Visibility: 16 km
Cloud details: Coperto 1524 m
2019/05/21 01:53 KWVI 210153Z AUTO 26011G18KT 10SM OVC050 13/10 A3000 RMK AO2 SLP158 T01330100
KHAF - Half Moon Bay, California, USA
Distance from station: ONO 50km
Dati ricevuti: 20/05/2019 19:35
Coperto
Coperto
 Vento da O
Vento: O 7 km/h
Temperatura: 13°C
P.to Rugiada: 10°C
Umidità: 82%
Barometro: 1016.6 hPa
Nuvole: Coperto
Visibility: 14 km
Cloud details: Few Clouds 640 m
Parz. nuvoloso 1280 m
Coperto 2438 m
2019/05/21 02:35 KHAF 210235Z AUTO 28004KT 9SM FEW021 SCT042 OVC080 13/10 A3002 RMK AO2
 
KHWD - Hayward, California, USA
Distance from station: N 44km
Dati ricevuti: 20/05/2019 18:54
Sereno
Sereno
 Vento da O
Vento: O 20 km/h
Temperatura: 14°C
P.to Rugiada: 8°C
Umidità: 67%
Barometro: 1015.6 hPa
Nuvole: Sereno
Visibility: 16 km
2019/05/21 01:54 KHWD 210154Z 28011KT 10SM CLR 14/08 A2999 RMK AO2 SLP167 T01440083
KLVK - Livermore, California, USA
Distance from station: NNE 51km
Dati ricevuti: 20/05/2019 18:53
Sereno
Sereno
 Vento da O
Vento: O 26 km/h
Temperatura: 14°C
P.to Rugiada: 7°C
Umidità: 63%
Barometro: 1014.9 hPa
Nuvole: Sereno
Visibility: 16 km
2019/05/21 01:53 KLVK 210153Z 27014KT 10SM CLR 14/07 A2997 RMK AO2 SLP148 T01440067